createdAt,value
2018-07-27T00:00:06.103Z,28.00
2018-07-27T00:02:33.460Z,28.00
2018-07-27T00:05:00.793Z,28.00
2018-07-27T00:07:28.135Z,28.10
2018-07-27T00:09:55.471Z,28.10
2018-07-27T00:12:22.791Z,28.10
2018-07-27T00:14:50.122Z,28.10
2018-07-27T00:17:17.452Z,28.10
2018-07-27T00:19:44.772Z,28.10
2018-07-27T00:22:12.145Z,28.00
2018-07-27T00:24:39.457Z,28.00
2018-07-27T00:27:06.777Z,27.90
2018-07-27T00:29:34.189Z,27.90
2018-07-27T00:32:01.572Z,27.90
2018-07-27T00:34:28.902Z,27.90
2018-07-27T00:36:56.199Z,27.90
2018-07-27T00:39:23.607Z,27.90
2018-07-27T00:41:50.964Z,27.80
2018-07-27T00:44:18.257Z,27.80
2018-07-27T00:46:45.582Z,27.80
2018-07-27T00:49:12.941Z,27.70
2018-07-27T00:51:40.284Z,27.70
2018-07-27T00:54:07.611Z,27.60
2018-07-27T00:56:34.921Z,27.60
2018-07-27T00:59:02.290Z,27.60
2018-07-27T01:01:29.631Z,27.60
2018-07-27T01:03:56.963Z,27.60
2018-07-27T01:06:24.300Z,27.50
2018-07-27T01:08:51.624Z,27.50
2018-07-27T01:11:19.107Z,27.50
2018-07-27T01:13:46.454Z,27.50
2018-07-27T01:16:13.765Z,27.40
2018-07-27T01:18:41.115Z,27.40
2018-07-27T01:21:08.507Z,27.40
2018-07-27T01:23:35.882Z,27.30
2018-07-27T01:26:03.241Z,27.30
2018-07-27T01:28:30.625Z,27.20
2018-07-27T01:30:57.947Z,27.20
2018-07-27T01:33:25.268Z,27.20
2018-07-27T01:35:52.624Z,27.10
2018-07-27T01:38:20.038Z,27.10
2018-07-27T01:40:47.346Z,27.00
2018-07-27T01:43:14.653Z,27.10
2018-07-27T01:45:42.007Z,27.00
2018-07-27T01:48:09.317Z,26.90
2018-07-27T01:50:36.639Z,26.90
2018-07-27T01:53:04.033Z,26.90
2018-07-27T01:55:31.360Z,26.80
2018-07-27T01:57:58.680Z,26.70
2018-07-27T02:00:26.011Z,26.60
2018-07-27T02:02:53.339Z,26.60
2018-07-27T02:05:20.679Z,26.50
2018-07-27T02:07:47.991Z,26.50
2018-07-27T02:10:15.315Z,26.50
2018-07-27T02:12:42.626Z,26.40
2018-07-27T02:15:09.982Z,26.30
2018-07-27T02:17:37.308Z,26.10
2018-07-27T02:20:04.679Z,25.90
2018-07-27T02:22:32.022Z,26.00
2018-07-27T02:24:59.373Z,25.90
2018-07-27T02:27:26.717Z,25.80
2018-07-27T02:29:54.047Z,25.70
2018-07-27T02:32:21.367Z,25.60
2018-07-27T02:34:48.709Z,25.60
2018-07-27T02:37:16.039Z,25.60
2018-07-27T02:39:43.346Z,25.60
2018-07-27T02:42:10.699Z,25.60
2018-07-27T02:44:38.024Z,25.60
2018-07-27T02:47:05.323Z,25.60
2018-07-27T02:49:32.673Z,25.60
2018-07-27T02:54:27.233Z,25.60
2018-07-27T02:56:54.524Z,25.50
2018-07-27T02:59:21.836Z,25.30
2018-07-27T03:01:49.158Z,25.30
2018-07-27T03:04:16.482Z,25.30
2018-07-27T03:06:43.829Z,25.20
2018-07-27T03:09:11.146Z,25.10
2018-07-27T03:11:38.462Z,25.00
2018-07-27T03:14:05.794Z,24.80
2018-07-27T03:16:33.130Z,24.80
2018-07-27T03:19:00.525Z,24.70
2018-07-27T03:21:27.867Z,24.70
2018-07-27T03:23:55.179Z,24.80
2018-07-27T03:26:22.526Z,24.80
2018-07-27T03:28:49.872Z,24.80
2018-07-27T03:31:17.175Z,24.80
2018-07-27T03:33:44.496Z,24.80
2018-07-27T03:36:11.838Z,24.60
2018-07-27T03:38:39.144Z,24.60
2018-07-27T03:41:06.953Z,24.50
2018-07-27T03:43:34.311Z,24.50
2018-07-27T03:46:01.681Z,24.50
2018-07-27T03:48:29.056Z,24.60
2018-07-27T03:50:56.407Z,24.60
2018-07-27T03:53:23.743Z,24.60
2018-07-27T03:55:51.095Z,24.60
2018-07-27T03:58:18.429Z,24.60
2018-07-27T04:00:46.015Z,24.70
2018-07-27T04:03:13.339Z,24.70
2018-07-27T04:08:07.871Z,24.70
2018-07-27T04:10:35.212Z,24.60
2018-07-27T04:13:02.579Z,24.50
2018-07-27T04:15:29.927Z,24.60
2018-07-27T04:17:57.271Z,24.60
2018-07-27T04:20:24.616Z,24.60
2018-07-27T04:22:52.074Z,24.60
2018-07-27T04:25:19.388Z,24.40
2018-07-27T04:27:46.723Z,24.20
2018-07-27T04:30:14.056Z,24.10
2018-07-27T04:32:41.374Z,24.10
2018-07-27T04:35:08.685Z,24.10
2018-07-27T04:37:36.040Z,24.10
2018-07-27T04:40:03.389Z,24.10
2018-07-27T04:42:31.002Z,24.10
2018-07-27T04:44:58.378Z,24.20
2018-07-27T04:47:25.689Z,24.30
2018-07-27T04:49:53.011Z,24.40
2018-07-27T04:52:20.388Z,24.60
2018-07-27T04:54:47.711Z,24.60
2018-07-27T04:57:15.034Z,24.80
2018-07-27T04:59:42.357Z,24.80
2018-07-27T05:02:09.875Z,24.80
2018-07-27T05:04:37.267Z,24.90
2018-07-27T05:07:04.595Z,25.00
2018-07-27T05:09:31.959Z,25.10
2018-07-27T05:11:59.516Z,25.20
2018-07-27T05:14:26.840Z,25.30
2018-07-27T05:16:54.175Z,25.30
2018-07-27T05:19:21.508Z,25.40
2018-07-27T05:21:48.835Z,25.50
2018-07-27T05:24:16.149Z,25.50
2018-07-27T05:26:43.491Z,25.60
2018-07-27T05:29:10.829Z,25.70
2018-07-27T05:31:38.280Z,25.80
2018-07-27T05:34:05.595Z,25.80
2018-07-27T05:36:32.910Z,25.90
2018-07-27T05:39:00.332Z,26.00
2018-07-27T05:41:27.655Z,26.00
2018-07-27T05:43:55.048Z,26.10
2018-07-27T05:46:22.352Z,26.20
2018-07-27T05:48:49.703Z,26.30
2018-07-27T05:51:17.039Z,26.50
2018-07-27T05:53:44.374Z,26.60
2018-07-27T05:56:11.685Z,26.70
2018-07-27T05:58:39.044Z,26.80
2018-07-27T06:01:06.807Z,26.90
2018-07-27T06:03:34.124Z,27.20
2018-07-27T06:06:01.612Z,27.20
2018-07-27T06:08:28.960Z,27.30
2018-07-27T06:10:56.284Z,27.40
2018-07-27T06:13:23.626Z,27.60
2018-07-27T06:15:50.963Z,27.70
2018-07-27T06:18:18.283Z,27.70
2018-07-27T06:20:45.718Z,27.80
2018-07-27T06:23:13.047Z,27.80
2018-07-27T06:25:40.432Z,27.80
2018-07-27T06:28:07.745Z,27.90
2018-07-27T06:30:35.112Z,27.90
2018-07-27T06:33:02.523Z,27.90
2018-07-27T06:35:29.907Z,27.90
2018-07-27T06:37:57.287Z,28.00
2018-07-27T06:40:24.635Z,28.10
2018-07-27T06:42:51.963Z,28.10
2018-07-27T06:45:19.312Z,28.20
2018-07-27T06:47:46.654Z,28.30
2018-07-27T06:50:13.974Z,28.40
2018-07-27T06:52:41.320Z,28.40
2018-07-27T06:55:08.651Z,28.50
2018-07-27T06:57:36.005Z,28.60
2018-07-27T07:00:03.958Z,28.60
2018-07-27T07:02:31.379Z,28.60
2018-07-27T07:04:58.980Z,28.60
2018-07-27T07:07:26.299Z,28.60
2018-07-27T07:09:53.618Z,28.70
2018-07-27T07:12:20.975Z,28.70
2018-07-27T07:14:48.284Z,28.80
2018-07-27T07:17:15.593Z,28.90
2018-07-27T07:19:42.912Z,29.00
2018-07-27T07:22:10.242Z,29.10
2018-07-27T07:24:37.820Z,29.20
2018-07-27T07:27:05.304Z,29.10
2018-07-27T07:29:32.824Z,29.20
2018-07-27T07:32:00.231Z,29.20
2018-07-27T07:34:27.601Z,29.20
2018-07-27T07:36:54.915Z,29.30
2018-07-27T07:39:22.245Z,29.40
2018-07-27T07:41:49.567Z,29.40
2018-07-27T07:44:16.915Z,29.40
2018-07-27T07:46:44.258Z,29.60
2018-07-27T07:49:11.571Z,29.70
2018-07-27T07:51:38.964Z,29.80
2018-07-27T07:54:06.339Z,29.90
2018-07-27T07:56:33.724Z,30.00
2018-07-27T07:59:01.145Z,30.00
2018-07-27T08:01:28.779Z,30.10
2018-07-27T08:03:56.162Z,30.20
2018-07-27T08:06:23.541Z,30.30
2018-07-27T08:08:51.115Z,30.40
2018-07-27T08:11:18.443Z,30.40
2018-07-27T08:13:45.768Z,30.40
2018-07-27T08:16:13.114Z,30.30
2018-07-27T08:18:40.431Z,30.40
2018-07-27T08:21:07.796Z,30.40
2018-07-27T08:23:35.223Z,30.50
2018-07-27T08:26:35.956Z,30.60
2018-07-27T08:29:03.288Z,30.70
2018-07-27T08:31:30.631Z,30.80
2018-07-27T08:33:57.966Z,31.00
2018-07-27T08:36:25.294Z,31.10
2018-07-27T08:38:52.642Z,31.10
2018-07-27T08:41:19.968Z,31.10
2018-07-27T08:43:47.276Z,31.10
2018-07-27T08:46:14.631Z,31.20
2018-07-27T08:48:42.219Z,31.30
2018-07-27T08:51:09.552Z,31.40
2018-07-27T08:53:36.927Z,31.50
2018-07-27T08:56:05.223Z,31.50
2018-07-27T08:58:32.840Z,31.60
2018-07-27T09:01:00.201Z,31.70
2018-07-27T09:03:27.523Z,31.70
2018-07-27T09:05:54.850Z,31.60
2018-07-27T09:08:22.159Z,31.60
2018-07-27T09:10:49.487Z,31.70
2018-07-27T09:13:16.828Z,31.80
2018-07-27T09:15:44.151Z,31.70
2018-07-27T09:18:11.467Z,31.80
2018-07-27T09:20:39.065Z,31.70
2018-07-27T09:23:06.379Z,31.70
2018-07-27T09:25:33.725Z,31.70
2018-07-27T09:28:01.078Z,31.80
2018-07-27T09:30:28.447Z,31.90
2018-07-27T09:32:55.787Z,32.00
2018-07-27T09:35:23.147Z,32.10
2018-07-27T09:37:50.427Z,32.00
2018-07-27T09:40:17.744Z,32.10
2018-07-27T09:42:45.095Z,32.20
2018-07-27T09:45:12.424Z,32.30
2018-07-27T09:47:39.730Z,32.40
2018-07-27T09:50:07.061Z,32.40
2018-07-27T09:52:34.411Z,32.50
2018-07-27T09:55:01.780Z,32.50
2018-07-27T09:57:29.138Z,32.60
2018-07-27T09:59:56.508Z,32.60
2018-07-27T10:02:23.820Z,32.50
2018-07-27T10:04:51.159Z,32.60
2018-07-27T10:07:18.479Z,32.70
2018-07-27T10:09:45.863Z,32.70
2018-07-27T10:12:13.283Z,32.70
2018-07-27T10:14:40.643Z,32.80
2018-07-27T10:17:07.977Z,32.90
2018-07-27T10:19:35.329Z,33.00
2018-07-27T10:22:02.694Z,32.90
2018-07-27T10:24:30.088Z,33.00
2018-07-27T10:26:57.395Z,33.10
2018-07-27T10:29:24.735Z,33.00
2018-07-27T10:31:52.099Z,33.00
2018-07-27T10:34:19.430Z,33.00
2018-07-27T10:36:46.756Z,33.00
2018-07-27T10:39:14.109Z,32.90
2018-07-27T10:41:41.434Z,32.90
2018-07-27T10:44:08.753Z,32.80
2018-07-27T10:46:36.092Z,32.90
2018-07-27T10:49:03.489Z,33.00
2018-07-27T10:51:30.871Z,33.00
2018-07-27T10:53:58.191Z,33.00
2018-07-27T10:56:25.587Z,33.20
2018-07-27T10:58:52.880Z,33.20
2018-07-27T11:01:20.205Z,33.30
2018-07-27T11:03:47.586Z,33.40
2018-07-27T11:06:14.891Z,33.50
2018-07-27T11:08:42.255Z,33.50
2018-07-27T11:11:09.539Z,33.50
2018-07-27T11:13:36.962Z,33.40
2018-07-27T11:16:04.406Z,33.20
2018-07-27T11:18:31.763Z,32.90
2018-07-27T11:20:59.183Z,32.90
2018-07-27T11:23:26.504Z,33.00
2018-07-27T11:28:21.066Z,33.30
2018-07-27T11:30:48.375Z,33.40
2018-07-27T11:33:15.723Z,33.50
2018-07-27T11:35:43.029Z,33.30
2018-07-27T11:38:10.357Z,33.30
2018-07-27T11:40:37.689Z,33.40
2018-07-27T11:43:05.224Z,33.60
2018-07-27T11:45:32.671Z,33.70
2018-07-27T11:48:00.331Z,33.80
2018-07-27T11:50:27.785Z,33.90
2018-07-27T11:52:55.271Z,33.90
2018-07-27T11:55:22.610Z,33.90
2018-07-27T11:57:50.033Z,34.10
2018-07-27T12:00:17.350Z,34.10
2018-07-27T12:02:44.751Z,34.20
2018-07-27T12:05:12.115Z,34.10
2018-07-27T12:07:39.470Z,34.00
2018-07-27T12:10:06.792Z,33.90
2018-07-27T12:12:34.150Z,33.90
2018-07-27T12:15:01.823Z,34.00
2018-07-27T12:17:28.834Z,34.00
2018-07-27T12:19:56.195Z,34.00
2018-07-27T12:22:23.546Z,34.00
2018-07-27T12:24:50.859Z,34.00
2018-07-27T12:27:18.197Z,34.00
2018-07-27T12:29:45.596Z,33.80
2018-07-27T12:32:12.945Z,33.60
2018-07-27T12:34:40.471Z,33.60
2018-07-27T12:37:07.804Z,33.70
2018-07-27T12:39:35.289Z,33.80
2018-07-27T12:42:02.715Z,33.90
2018-07-27T12:46:57.319Z,33.90
2018-07-27T12:49:24.652Z,34.10
2018-07-27T12:51:51.977Z,34.30
2018-07-27T12:54:19.315Z,34.50
2018-07-27T12:56:46.632Z,34.50
2018-07-27T12:59:13.940Z,34.50
2018-07-27T13:01:41.271Z,34.30
2018-07-27T13:04:08.617Z,34.40
2018-07-27T13:06:35.951Z,34.50
2018-07-27T13:09:05.889Z,34.40
2018-07-27T13:11:33.245Z,34.40
2018-07-27T13:14:00.605Z,34.50
2018-07-27T13:16:27.960Z,34.60
2018-07-27T13:18:55.283Z,34.70
2018-07-27T13:21:22.641Z,34.80
2018-07-27T13:23:56.104Z,34.80
2018-07-27T13:28:50.791Z,34.60
2018-07-27T13:31:18.930Z,34.60
2018-07-27T13:34:02.097Z,34.40
2018-07-27T13:36:29.704Z,34.20
2018-07-27T13:38:57.088Z,34.10
2018-07-27T13:41:24.425Z,34.10
2018-07-27T13:43:51.848Z,34.10
2018-07-27T13:46:19.132Z,34.30
2018-07-27T13:48:46.463Z,34.40
2018-07-27T13:51:13.763Z,34.40
2018-07-27T13:53:41.210Z,34.40
2018-07-27T13:56:08.543Z,34.40
2018-07-27T13:58:35.901Z,34.50
2018-07-27T14:01:03.327Z,34.40
2018-07-27T14:03:30.696Z,34.50
2018-07-27T14:05:58.016Z,34.50
2018-07-27T14:08:25.315Z,34.70
2018-07-27T14:10:52.832Z,35.00
2018-07-27T14:13:20.173Z,35.20
2018-07-27T14:15:47.497Z,35.30
2018-07-27T14:18:14.823Z,35.50
2018-07-27T14:20:42.159Z,35.60
2018-07-27T14:23:09.804Z,35.80
2018-07-27T14:25:37.150Z,35.90
2018-07-27T14:28:04.817Z,36.10
2018-07-27T14:30:32.206Z,36.20
2018-07-27T14:32:59.554Z,36.20
2018-07-27T14:35:26.906Z,36.20
2018-07-27T14:37:54.328Z,36.30
2018-07-27T14:40:21.679Z,36.40
2018-07-27T14:42:49.015Z,36.40
2018-07-27T14:45:16.357Z,36.40
2018-07-27T14:47:43.682Z,36.50
2018-07-27T14:50:11.019Z,36.40
2018-07-27T14:55:05.541Z,36.50
2018-07-27T14:57:32.895Z,36.50
2018-07-27T15:00:00.220Z,36.60
2018-07-27T15:02:27.591Z,36.60
2018-07-27T15:04:54.911Z,36.70
2018-07-27T15:07:22.251Z,36.70
2018-07-27T15:09:49.593Z,36.30
2018-07-27T15:12:16.892Z,36.40
2018-07-27T15:14:44.219Z,36.10
2018-07-27T15:17:11.544Z,36.10
2018-07-27T15:19:38.856Z,36.20
2018-07-27T15:22:06.286Z,36.40
2018-07-27T15:24:33.644Z,36.30
2018-07-27T15:27:00.979Z,36.20
2018-07-27T15:29:28.339Z,36.30
2018-07-27T15:31:55.640Z,36.30
2018-07-27T15:34:22.988Z,36.30
2018-07-27T15:36:50.316Z,36.50
2018-07-27T15:39:17.633Z,36.50
2018-07-27T15:41:44.953Z,36.50
2018-07-27T15:44:12.331Z,36.60
2018-07-27T15:46:39.766Z,36.60
2018-07-27T15:49:07.172Z,36.50
2018-07-27T15:51:34.579Z,36.40
2018-07-27T15:54:02.021Z,36.40
2018-07-27T15:56:29.533Z,36.30
2018-07-27T15:58:56.854Z,36.30
2018-07-27T16:01:24.187Z,36.40
2018-07-27T16:03:51.540Z,36.30
2018-07-27T16:06:18.919Z,36.40
2018-07-27T16:08:46.243Z,36.50
2018-07-27T16:11:13.555Z,36.70
2018-07-27T16:13:40.909Z,36.80
2018-07-27T16:16:08.228Z,36.90
2018-07-27T16:18:35.683Z,37.10
2018-07-27T16:21:03.020Z,37.10
2018-07-27T16:23:30.363Z,37.40
2018-07-27T16:25:57.721Z,37.60
2018-07-27T16:28:25.075Z,37.70
2018-07-27T16:30:52.432Z,37.80
2018-07-27T16:33:19.801Z,37.70
2018-07-27T16:35:47.208Z,38.00
2018-07-27T16:38:14.520Z,38.50
2018-07-27T16:40:41.847Z,38.90
2018-07-27T16:43:09.774Z,39.40
2018-07-27T16:45:37.213Z,40.20
2018-07-27T16:48:04.650Z,40.90
2018-07-27T16:50:32.027Z,41.50
2018-07-27T16:52:59.477Z,41.90
2018-07-27T16:55:26.747Z,42.30
2018-07-27T16:57:54.058Z,42.60
2018-07-27T17:00:21.386Z,42.60
2018-07-27T17:02:48.712Z,42.60
2018-07-27T17:07:43.302Z,43.20
2018-07-27T17:10:10.643Z,43.40
2018-07-27T17:12:37.971Z,43.50
2018-07-27T17:15:05.358Z,43.50
2018-07-27T17:17:32.701Z,43.50
2018-07-27T17:20:00.091Z,43.50
2018-07-27T17:22:27.349Z,43.50
2018-07-27T17:24:54.686Z,43.60
2018-07-27T17:27:22.003Z,43.70
2018-07-27T17:29:49.317Z,43.70
2018-07-27T17:32:16.659Z,43.80
2018-07-27T17:34:43.979Z,43.90
2018-07-27T17:37:11.388Z,44.00
2018-07-27T17:39:38.691Z,44.00
2018-07-27T17:42:06.160Z,44.10
2018-07-27T17:44:33.541Z,44.20
2018-07-27T17:47:00.917Z,44.30
2018-07-27T17:49:28.241Z,44.30
2018-07-27T17:51:55.565Z,44.40
2018-07-27T17:54:22.942Z,44.50
2018-07-27T17:56:50.295Z,44.60
2018-07-27T17:59:17.621Z,44.50
2018-07-27T18:01:44.974Z,44.50
2018-07-27T18:04:12.261Z,44.10
2018-07-27T18:06:39.583Z,43.90
2018-07-27T18:09:08.535Z,43.80
2018-07-27T18:11:35.924Z,43.50
2018-07-27T18:14:03.363Z,43.30
2018-07-27T18:16:30.720Z,43.00
2018-07-27T18:18:58.095Z,42.50
2018-07-27T18:21:25.412Z,41.90
2018-07-27T18:23:52.739Z,41.40
2018-07-27T18:26:20.092Z,41.00
2018-07-27T18:28:47.416Z,40.60
2018-07-27T18:31:14.751Z,40.20
2018-07-27T18:33:42.092Z,39.60
2018-07-27T18:36:09.434Z,39.10
2018-07-27T18:38:36.746Z,38.50
2018-07-27T18:41:04.183Z,38.00
2018-07-27T18:43:31.535Z,37.60
2018-07-27T18:45:58.869Z,37.20
2018-07-27T18:48:26.295Z,36.80
2018-07-27T18:50:53.631Z,36.30
2018-07-27T18:53:20.943Z,35.90
2018-07-27T18:55:48.264Z,35.50
2018-07-27T18:58:15.582Z,35.20
2018-07-27T19:00:42.911Z,34.90
2018-07-27T19:03:10.259Z,34.60
2018-07-27T19:05:37.562Z,34.30
2018-07-27T19:08:05.035Z,34.10
2018-07-27T19:10:32.370Z,33.90
2018-07-27T19:12:59.827Z,33.70
2018-07-27T19:15:27.189Z,33.50
2018-07-27T19:17:54.491Z,33.40
2018-07-27T19:20:21.829Z,33.10
2018-07-27T19:22:49.135Z,32.90
2018-07-27T19:25:16.471Z,32.90
2018-07-27T19:27:43.824Z,32.80
2018-07-27T19:30:11.167Z,32.70
2018-07-27T19:32:38.483Z,32.60
2018-07-27T19:35:05.855Z,32.50
2018-07-27T19:37:33.204Z,32.40
2018-07-27T19:40:00.568Z,32.30
2018-07-27T19:42:27.892Z,32.20
2018-07-27T19:44:55.207Z,32.20
2018-07-27T19:47:22.532Z,32.10
2018-07-27T19:49:50.171Z,32.00
2018-07-27T19:52:17.519Z,32.00
2018-07-27T19:54:44.851Z,31.90
2018-07-27T19:57:12.168Z,31.80
2018-07-27T19:59:39.538Z,31.60
2018-07-27T20:02:06.979Z,31.50
2018-07-27T20:04:34.295Z,31.40
2018-07-27T20:07:01.759Z,31.40
2018-07-27T20:09:29.598Z,31.20
2018-07-27T20:11:56.892Z,31.10
2018-07-27T20:14:24.219Z,31.00
2018-07-27T20:16:51.553Z,30.90
2018-07-27T20:19:18.872Z,30.80
2018-07-27T20:21:46.189Z,30.70
2018-07-27T20:24:13.537Z,30.70
2018-07-27T20:26:40.835Z,30.60
2018-07-27T20:29:08.152Z,30.60
2018-07-27T20:31:35.551Z,30.50
2018-07-27T20:34:02.909Z,30.50
2018-07-27T20:36:31.280Z,30.50
2018-07-27T20:38:58.591Z,30.40
2018-07-27T20:41:25.903Z,30.40
2018-07-27T20:43:53.240Z,30.40
2018-07-27T20:46:20.542Z,30.30
2018-07-27T20:48:47.896Z,30.30
2018-07-27T20:51:15.224Z,30.20
2018-07-27T20:53:42.547Z,30.10
2018-07-27T20:56:09.867Z,30.10
2018-07-27T20:58:37.192Z,30.10
2018-07-27T21:01:04.540Z,30.10
2018-07-27T21:03:31.875Z,30.10
2018-07-27T21:05:59.192Z,30.10
2018-07-27T21:08:26.507Z,30.00
2018-07-27T21:10:53.855Z,29.90
2018-07-27T21:13:21.144Z,30.00
2018-07-27T21:15:48.478Z,29.90
2018-07-27T21:18:15.807Z,29.90
2018-07-27T21:20:43.135Z,29.90
2018-07-27T21:23:10.440Z,29.90
2018-07-27T21:25:37.832Z,29.90
2018-07-27T21:28:05.281Z,29.90
2018-07-27T21:30:32.662Z,29.90
2018-07-27T21:33:00.038Z,29.80
2018-07-27T21:35:27.408Z,29.70
2018-07-27T21:37:55.184Z,29.70
2018-07-27T21:40:22.519Z,29.70
2018-07-27T21:42:49.891Z,29.70
2018-07-27T21:45:17.272Z,29.50
2018-07-27T21:47:44.583Z,29.50
2018-07-27T21:50:12.146Z,29.50
2018-07-27T21:52:39.609Z,29.40
2018-07-27T21:55:06.984Z,29.40
2018-07-27T21:57:34.312Z,29.30
2018-07-27T22:00:01.714Z,29.40
2018-07-27T22:02:29.859Z,29.30
2018-07-27T22:04:57.173Z,29.20
2018-07-27T22:07:24.484Z,29.00
2018-07-27T22:09:52.008Z,28.90
2018-07-27T22:12:19.344Z,28.80
2018-07-27T22:14:46.684Z,28.80
2018-07-27T22:17:14.003Z,28.80
2018-07-27T22:19:41.368Z,28.70
2018-07-27T22:22:08.688Z,28.60
2018-07-27T22:24:36.047Z,28.50
2018-07-27T22:27:03.383Z,28.50
2018-07-27T22:29:30.735Z,28.50
2018-07-27T22:31:58.051Z,28.40
2018-07-27T22:34:25.371Z,28.40
2018-07-27T22:36:52.728Z,28.40
2018-07-27T22:39:20.044Z,28.30
2018-07-27T22:41:47.466Z,28.20
2018-07-27T22:44:14.772Z,28.20
2018-07-27T22:46:42.140Z,28.20
2018-07-27T22:49:09.532Z,28.10
2018-07-27T22:51:36.835Z,28.00
2018-07-27T22:54:04.142Z,28.00
2018-07-27T22:56:31.471Z,28.00
2018-07-27T22:58:58.796Z,28.00
2018-07-27T23:01:26.136Z,28.00
2018-07-27T23:03:53.840Z,28.00
2018-07-27T23:06:21.050Z,28.00
2018-07-27T23:08:48.413Z,28.00
2018-07-27T23:11:15.718Z,28.00
2018-07-27T23:13:43.016Z,27.90
2018-07-27T23:16:10.371Z,27.90
2018-07-27T23:18:37.701Z,27.90
2018-07-27T23:21:05.646Z,27.90
2018-07-27T23:23:32.945Z,27.80
2018-07-27T23:26:00.263Z,27.80
2018-07-27T23:28:27.585Z,27.80
2018-07-27T23:30:54.938Z,27.80
2018-07-27T23:33:22.250Z,27.70
2018-07-27T23:35:49.877Z,27.80
2018-07-27T23:38:17.212Z,27.70
2018-07-27T23:40:44.543Z,27.60
2018-07-27T23:43:11.880Z,27.60
2018-07-27T23:45:39.239Z,27.50
2018-07-27T23:48:06.594Z,27.40
2018-07-27T23:50:33.928Z,27.30
2018-07-27T23:53:01.231Z,27.40
2018-07-27T23:55:28.541Z,27.30
2018-07-27T23:57:55.872Z,27.30
